Impacts TAF Board INFO
FOR SITUATIONAL AWARENESS. NOT TO BE USED FOR FLIGHT PLANNING PURPOSES.
IDs:

KCLT - Charlotte/Douglas In, NC, US

Issued at 0159 UTC 11 Dec 2017
Updated at 0219 UTC 11 Dec 2017
Potential Impact None Slight Moderate High
Time<<12/03Z 12/04Z 12/05Z 12/06Z 12/07Z 12/08Z 12/09Z 12/10Z 12/11Z 12/12Z 12/13Z 12/14Z 12/15Z
Type PRVL PRVL PRVL
VIS >6 >6 >6
CIG -- -- --
Cover FEW FEW FEW
FltCat VFR VFR VFR
WX -- -- --
WDir 210 210 210
WSpd 4 4 4
WGst -- -- --

Raw TAF
KCLT 110159Z 1102/1206 22005KT P6SM FEW250
  FM110700 22003KT P6SM FEW120
  FM111700 21004KT P6SM FEW250


METAR Board
Radar Display
Forecast Discussion

FOR SITUATIONAL AWARENESS. NOT TO BE USED FOR FLIGHT PLANNING PURPOSES.